sensor_id;sensor_type;location;lat;lon;timestamp;temperature;humidity
33414;DHT22;60055;41.884;12.534;2022-08-01T00:00:36;29.50;66.50
33414;DHT22;60055;41.884;12.534;2022-08-01T00:03:01;29.60;67.00
33414;DHT22;60055;41.884;12.534;2022-08-01T00:05:27;29.60;67.20
33414;DHT22;60055;41.884;12.534;2022-08-01T00:07:53;29.60;67.20
33414;DHT22;60055;41.884;12.534;2022-08-01T00:10:19;29.60;67.10
33414;DHT22;60055;41.884;12.534;2022-08-01T00:12:45;29.50;66.70
33414;DHT22;60055;41.884;12.534;2022-08-01T00:15:13;29.50;65.70
33414;DHT22;60055;41.884;12.534;2022-08-01T00:17:40;29.30;65.70
33414;DHT22;60055;41.884;12.534;2022-08-01T00:20:07;29.20;65.70
33414;DHT22;60055;41.884;12.534;2022-08-01T00:22:34;29.30;65.00
33414;DHT22;60055;41.884;12.534;2022-08-01T00:25:00;29.30;64.70
33414;DHT22;60055;41.884;12.534;2022-08-01T00:27:26;29.30;64.80
33414;DHT22;60055;41.884;12.534;2022-08-01T00:29:52;29.30;64.70
33414;DHT22;60055;41.884;12.534;2022-08-01T00:32:18;29.20;65.30
33414;DHT22;60055;41.884;12.534;2022-08-01T00:34:44;29.00;66.30
33414;DHT22;60055;41.884;12.534;2022-08-01T00:37:09;28.90;67.10
33414;DHT22;60055;41.884;12.534;2022-08-01T00:39:35;29.00;65.80
33414;DHT22;60055;41.884;12.534;2022-08-01T00:42:07;29.10;64.70
33414;DHT22;60055;41.884;12.534;2022-08-01T00:44:33;29.20;64.20
33414;DHT22;60055;41.884;12.534;2022-08-01T00:46:59;29.00;64.40
33414;DHT22;60055;41.884;12.534;2022-08-01T00:49:25;29.00;66.60
33414;DHT22;60055;41.884;12.534;2022-08-01T00:51:51;28.90;67.60
33414;DHT22;60055;41.884;12.534;2022-08-01T00:54:16;28.90;68.30
33414;DHT22;60055;41.884;12.534;2022-08-01T00:56:42;28.70;69.20
33414;DHT22;60055;41.884;12.534;2022-08-01T00:59:09;28.60;69.50
33414;DHT22;60055;41.884;12.534;2022-08-01T01:01:36;28.70;68.50
33414;DHT22;60055;41.884;12.534;2022-08-01T01:04:02;28.80;68.70
33414;DHT22;60055;41.884;12.534;2022-08-01T01:15:03;28.10;73.90
33414;DHT22;60055;41.884;12.534;2022-08-01T01:20:13;28.10;75.00
33414;DHT22;60055;41.884;12.534;2022-08-01T01:31:02;27.80;76.70
33414;DHT22;60055;41.884;12.534;2022-08-01T01:33:32;27.80;77.30
33414;DHT22;60055;41.884;12.534;2022-08-01T01:36:03;27.80;78.10
33414;DHT22;60055;41.884;12.534;2022-08-01T01:38:35;27.80;77.60
33414;DHT22;60055;41.884;12.534;2022-08-01T01:41:02;27.80;77.80
33414;DHT22;60055;41.884;12.534;2022-08-01T01:43:29;27.80;78.30
33414;DHT22;60055;41.884;12.534;2022-08-01T01:45:57;27.70;78.90
33414;DHT22;60055;41.884;12.534;2022-08-01T01:48:23;27.60;79.50
33414;DHT22;60055;41.884;12.534;2022-08-01T01:50:50;27.80;79.60
33414;DHT22;60055;41.884;12.534;2022-08-01T01:53:20;27.60;79.90
33414;DHT22;60055;41.884;12.534;2022-08-01T01:55:49;27.70;80.00
33414;DHT22;60055;41.884;12.534;2022-08-01T01:58:16;27.60;80.60
33414;DHT22;60055;41.884;12.534;2022-08-01T02:00:44;27.60;81.40
33414;DHT22;60055;41.884;12.534;2022-08-01T02:03:12;27.70;81.30
33414;DHT22;60055;41.884;12.534;2022-08-01T02:05:39;27.60;81.50
33414;DHT22;60055;41.884;12.534;2022-08-01T02:08:05;27.60;82.00
33414;DHT22;60055;41.884;12.534;2022-08-01T02:10:34;27.60;82.30
33414;DHT22;60055;41.884;12.534;2022-08-01T02:13:03;27.50;82.60
33414;DHT22;60055;41.884;12.534;2022-08-01T02:15:34;27.60;82.70
33414;DHT22;60055;41.884;12.534;2022-08-01T02:18:05;27.60;83.00
33414;DHT22;60055;41.884;12.534;2022-08-01T02:20:34;27.70;82.60
33414;DHT22;60055;41.884;12.534;2022-08-01T02:23:05;27.70;82.60
33414;DHT22;60055;41.884;12.534;2022-08-01T02:25:39;27.60;82.70
33414;DHT22;60055;41.884;12.534;2022-08-01T02:28:10;27.60;83.00
33414;DHT22;60055;41.884;12.534;2022-08-01T02:30:39;27.50;83.10
33414;DHT22;60055;41.884;12.534;2022-08-01T02:33:16;27.60;83.00
33414;DHT22;60055;41.884;12.534;2022-08-01T02:35:47;27.60;83.00
33414;DHT22;60055;41.884;12.534;2022-08-01T02:38:14;27.60;83.00
33414;DHT22;60055;41.884;12.534;2022-08-01T02:40:45;27.50;82.80
33414;DHT22;60055;41.884;12.534;2022-08-01T02:43:17;27.60;82.70
33414;DHT22;60055;41.884;12.534;2022-08-01T02:45:47;27.60;82.90
33414;DHT22;60055;41.884;12.534;2022-08-01T02:48:15;27.50;83.30
33414;DHT22;60055;41.884;12.534;2022-08-01T02:50:44;27.30;84.30
33414;DHT22;60055;41.884;12.534;2022-08-01T02:53:12;27.30;84.10
33414;DHT22;60055;41.884;12.534;2022-08-01T02:55:39;27.40;83.50
33414;DHT22;60055;41.884;12.534;2022-08-01T02:58:08;27.50;83.10
33414;DHT22;60055;41.884;12.534;2022-08-01T03:00:35;27.50;83.00
33414;DHT22;60055;41.884;12.534;2022-08-01T03:03:03;27.40;83.20
33414;DHT22;60055;41.884;12.534;2022-08-01T03:05:30;27.30;83.50
33414;DHT22;60055;41.884;12.534;2022-08-01T03:07:58;27.30;83.30
33414;DHT22;60055;41.884;12.534;2022-08-01T03:10:27;27.30;83.50
33414;DHT22;60055;41.884;12.534;2022-08-01T03:12:54;27.20;83.70
33414;DHT22;60055;41.884;12.534;2022-08-01T03:15:21;27.30;83.60
33414;DHT22;60055;41.884;12.534;2022-08-01T03:17:49;27.20;83.40
33414;DHT22;60055;41.884;12.534;2022-08-01T03:20:18;27.30;83.40
33414;DHT22;60055;41.884;12.534;2022-08-01T03:22:45;27.20;83.70
33414;DHT22;60055;41.884;12.534;2022-08-01T03:25:14;27.20;83.60
33414;DHT22;60055;41.884;12.534;2022-08-01T03:27:42;27.10;84.00
33414;DHT22;60055;41.884;12.534;2022-08-01T03:30:09;27.10;83.60
33414;DHT22;60055;41.884;12.534;2022-08-01T03:32:36;27.00;83.60
33414;DHT22;60055;41.884;12.534;2022-08-01T03:35:02;27.10;83.60
33414;DHT22;60055;41.884;12.534;2022-08-01T03:37:33;27.10;83.40
33414;DHT22;60055;41.884;12.534;2022-08-01T03:42:37;27.00;83.50
33414;DHT22;60055;41.884;12.534;2022-08-01T03:45:07;27.00;83.20
33414;DHT22;60055;41.884;12.534;2022-08-01T03:47:42;27.00;83.00
33414;DHT22;60055;41.884;12.534;2022-08-01T03:50:10;26.90;83.20
33414;DHT22;60055;41.884;12.534;2022-08-01T03:52:38;26.80;83.10
33414;DHT22;60055;41.884;12.534;2022-08-01T03:55:06;26.90;83.10
33414;DHT22;60055;41.884;12.534;2022-08-01T03:57:33;26.90;82.80
33414;DHT22;60055;41.884;12.534;2022-08-01T04:00:00;26.80;82.90
33414;DHT22;60055;41.884;12.534;2022-08-01T04:02:29;26.70;83.10
33414;DHT22;60055;41.884;12.534;2022-08-01T04:04:55;26.70;83.00
33414;DHT22;60055;41.884;12.534;2022-08-01T04:07:28;26.60;83.30
33414;DHT22;60055;41.884;12.534;2022-08-01T04:09:54;26.60;83.30
33414;DHT22;60055;41.884;12.534;2022-08-01T04:12:20;26.70;83.40
33414;DHT22;60055;41.884;12.534;2022-08-01T04:14:46;26.70;83.00
33414;DHT22;60055;41.884;12.534;2022-08-01T04:17:12;26.80;82.70
33414;DHT22;60055;41.884;12.534;2022-08-01T04:19:40;26.70;82.50
33414;DHT22;60055;41.884;12.534;2022-08-01T04:22:07;26.70;82.50
33414;DHT22;60055;41.884;12.534;2022-08-01T04:24:34;26.70;82.50
33414;DHT22;60055;41.884;12.534;2022-08-01T04:27:03;26.50;82.70
33414;DHT22;60055;41.884;12.534;2022-08-01T04:29:31;26.50;83.00
33414;DHT22;60055;41.884;12.534;2022-08-01T04:31:59;26.50;82.70
33414;DHT22;60055;41.884;12.534;2022-08-01T04:34:30;26.60;82.80
33414;DHT22;60055;41.884;12.534;2022-08-01T04:36:57;26.50;82.40
33414;DHT22;60055;41.884;12.534;2022-08-01T04:39:27;26.50;82.60
33414;DHT22;60055;41.884;12.534;2022-08-01T04:41:54;26.40;83.10
33414;DHT22;60055;41.884;12.534;2022-08-01T04:44:23;26.40;82.50
33414;DHT22;60055;41.884;12.534;2022-08-01T04:46:50;26.40;82.60
33414;DHT22;60055;41.884;12.534;2022-08-01T04:49:20;26.50;82.60
33414;DHT22;60055;41.884;12.534;2022-08-01T04:51:54;26.60;82.20
33414;DHT22;60055;41.884;12.534;2022-08-01T04:54:30;26.70;81.90
33414;DHT22;60055;41.884;12.534;2022-08-01T04:56:59;26.80;81.40
33414;DHT22;60055;41.884;12.534;2022-08-01T04:59:28;26.70;81.20
33414;DHT22;60055;41.884;12.534;2022-08-01T05:02:16;26.80;81.10
33414;DHT22;60055;41.884;12.534;2022-08-01T05:04:45;27.10;80.20
33414;DHT22;60055;41.884;12.534;2022-08-01T05:07:12;27.40;79.30
33414;DHT22;60055;41.884;12.534;2022-08-01T05:09:39;27.50;78.70
33414;DHT22;60055;41.884;12.534;2022-08-01T05:12:08;27.50;78.40
33414;DHT22;60055;41.884;12.534;2022-08-01T05:14:34;27.50;78.40
33414;DHT22;60055;41.884;12.534;2022-08-01T05:17:02;27.80;77.70
33414;DHT22;60055;41.884;12.534;2022-08-01T05:19:33;28.10;76.60
33414;DHT22;60055;41.884;12.534;2022-08-01T05:22:06;28.20;76.10
33414;DHT22;60055;41.884;12.534;2022-08-01T05:24:32;28.20;75.90
33414;DHT22;60055;41.884;12.534;2022-08-01T05:26:59;28.40;75.50
33414;DHT22;60055;41.884;12.534;2022-08-01T05:29:25;28.50;75.00
33414;DHT22;60055;41.884;12.534;2022-08-01T05:31:52;28.60;74.60
33414;DHT22;60055;41.884;12.534;2022-08-01T05:34:18;28.70;74.30
33414;DHT22;60055;41.884;12.534;2022-08-01T05:36:44;28.90;74.30
33414;DHT22;60055;41.884;12.534;2022-08-01T05:39:11;28.90;73.90
33414;DHT22;60055;41.884;12.534;2022-08-01T05:41:37;29.20;72.90
33414;DHT22;60055;41.884;12.534;2022-08-01T05:44:06;29.00;72.60
33414;DHT22;60055;41.884;12.534;2022-08-01T05:46:32;29.20;72.50
33414;DHT22;60055;41.884;12.534;2022-08-01T05:49:00;29.20;72.30
33414;DHT22;60055;41.884;12.534;2022-08-01T05:51:26;29.40;72.20
33414;DHT22;60055;41.884;12.534;2022-08-01T05:53:53;29.50;71.40
33414;DHT22;60055;41.884;12.534;2022-08-01T05:56:20;29.70;71.10
33414;DHT22;60055;41.884;12.534;2022-08-01T05:58:46;29.60;71.00
33414;DHT22;60055;41.884;12.534;2022-08-01T06:01:12;29.90;70.40
33414;DHT22;60055;41.884;12.534;2022-08-01T06:03:37;30.00;69.80
33414;DHT22;60055;41.884;12.534;2022-08-01T06:06:04;30.10;69.40
33414;DHT22;60055;41.884;12.534;2022-08-01T06:08:30;30.20;69.10
33414;DHT22;60055;41.884;12.534;2022-08-01T06:10:56;30.30;69.20
33414;DHT22;60055;41.884;12.534;2022-08-01T06:13:22;30.40;68.40
33414;DHT22;60055;41.884;12.534;2022-08-01T06:15:48;30.40;67.90
33414;DHT22;60055;41.884;12.534;2022-08-01T06:18:14;30.40;67.80
33414;DHT22;60055;41.884;12.534;2022-08-01T06:20:40;30.60;67.30
33414;DHT22;60055;41.884;12.534;2022-08-01T06:23:06;30.50;67.40
33414;DHT22;60055;41.884;12.534;2022-08-01T06:25:32;30.60;67.20
33414;DHT22;60055;41.884;12.534;2022-08-01T06:27:59;30.50;66.90
33414;DHT22;60055;41.884;12.534;2022-08-01T06:30:26;30.50;66.70
33414;DHT22;60055;41.884;12.534;2022-08-01T06:32:51;30.80;66.50
33414;DHT22;60055;41.884;12.534;2022-08-01T06:35:17;31.10;65.90
33414;DHT22;60055;41.884;12.534;2022-08-01T06:37:43;30.90;65.70
33414;DHT22;60055;41.884;12.534;2022-08-01T06:40:12;30.90;65.30
33414;DHT22;60055;41.884;12.534;2022-08-01T06:42:38;31.00;64.90
33414;DHT22;60055;41.884;12.534;2022-08-01T06:45:05;31.20;64.10
33414;DHT22;60055;41.884;12.534;2022-08-01T06:47:31;31.10;63.40
33414;DHT22;60055;41.884;12.534;2022-08-01T06:49:57;31.00;63.20
33414;DHT22;60055;41.884;12.534;2022-08-01T06:52:23;30.70;62.90
33414;DHT22;60055;41.884;12.534;2022-08-01T06:54:49;30.90;62.00
33414;DHT22;60055;41.884;12.534;2022-08-01T06:57:14;31.40;61.90
33414;DHT22;60055;41.884;12.534;2022-08-01T06:59:40;31.60;61.40
33414;DHT22;60055;41.884;12.534;2022-08-01T07:02:06;31.60;60.70
33414;DHT22;60055;41.884;12.534;2022-08-01T07:04:33;31.70;60.50
33414;DHT22;60055;41.884;12.534;2022-08-01T07:06:59;31.70;60.60
33414;DHT22;60055;41.884;12.534;2022-08-01T07:09:25;32.40;59.80
33414;DHT22;60055;41.884;12.534;2022-08-01T07:11:51;32.20;58.90
33414;DHT22;60055;41.884;12.534;2022-08-01T07:14:18;32.30;58.70
33414;DHT22;60055;41.884;12.534;2022-08-01T07:16:44;32.10;59.30
33414;DHT22;60055;41.884;12.534;2022-08-01T07:19:09;32.30;59.90
33414;DHT22;60055;41.884;12.534;2022-08-01T07:21:35;32.50;58.60
33414;DHT22;60055;41.884;12.534;2022-08-01T07:24:01;32.30;59.30
33414;DHT22;60055;41.884;12.534;2022-08-01T07:26:26;32.10;59.20
33414;DHT22;60055;41.884;12.534;2022-08-01T07:28:53;32.50;59.40
33414;DHT22;60055;41.884;12.534;2022-08-01T07:31:19;32.90;58.40
33414;DHT22;60055;41.884;12.534;2022-08-01T07:33:44;32.50;58.00
33414;DHT22;60055;41.884;12.534;2022-08-01T07:36:10;31.90;59.50
33414;DHT22;60055;41.884;12.534;2022-08-01T07:38:36;32.00;59.20
33414;DHT22;60055;41.884;12.534;2022-08-01T07:41:02;32.60;58.40
33414;DHT22;60055;41.884;12.534;2022-08-01T07:43:28;33.00;57.90
33414;DHT22;60055;41.884;12.534;2022-08-01T07:45:54;33.00;57.40
33414;DHT22;60055;41.884;12.534;2022-08-01T07:48:19;33.00;57.80
33414;DHT22;60055;41.884;12.534;2022-08-01T07:50:49;33.30;57.40
33414;DHT22;60055;41.884;12.534;2022-08-01T07:53:15;33.60;56.60
33414;DHT22;60055;41.884;12.534;2022-08-01T07:55:40;33.60;55.90
33414;DHT22;60055;41.884;12.534;2022-08-01T07:58:06;33.30;56.00
33414;DHT22;60055;41.884;12.534;2022-08-01T08:00:32;33.30;55.90
33414;DHT22;60055;41.884;12.534;2022-08-01T08:02:57;33.60;54.70
33414;DHT22;60055;41.884;12.534;2022-08-01T08:05:25;33.60;54.00
33414;DHT22;60055;41.884;12.534;2022-08-01T08:07:51;33.90;53.40
33414;DHT22;60055;41.884;12.534;2022-08-01T08:10:16;34.60;52.90
33414;DHT22;60055;41.884;12.534;2022-08-01T08:12:42;33.60;54.20
33414;DHT22;60055;41.884;12.534;2022-08-01T08:15:08;33.20;54.10
33414;DHT22;60055;41.884;12.534;2022-08-01T08:17:34;32.70;53.80
33414;DHT22;60055;41.884;12.534;2022-08-01T08:20:01;32.80;53.50
33414;DHT22;60055;41.884;12.534;2022-08-01T08:22:27;33.60;52.70
33414;DHT22;60055;41.884;12.534;2022-08-01T08:24:53;34.10;52.70
33414;DHT22;60055;41.884;12.534;2022-08-01T08:27:18;34.20;52.20
33414;DHT22;60055;41.884;12.534;2022-08-01T08:29:47;34.10;51.90
33414;DHT22;60055;41.884;12.534;2022-08-01T08:32:12;34.00;51.70
33414;DHT22;60055;41.884;12.534;2022-08-01T08:34:38;33.70;51.80
33414;DHT22;60055;41.884;12.534;2022-08-01T08:37:04;33.70;52.00
33414;DHT22;60055;41.884;12.534;2022-08-01T08:39:29;34.10;51.40
33414;DHT22;60055;41.884;12.534;2022-08-01T08:41:59;34.10;50.70
33414;DHT22;60055;41.884;12.534;2022-08-01T08:44:25;34.40;50.70
33414;DHT22;60055;41.884;12.534;2022-08-01T08:46:51;34.50;50.70
33414;DHT22;60055;41.884;12.534;2022-08-01T08:49:23;34.60;50.60
33414;DHT22;60055;41.884;12.534;2022-08-01T08:51:51;34.00;50.80
33414;DHT22;60055;41.884;12.534;2022-08-01T08:54:21;33.60;51.20
33414;DHT22;60055;41.884;12.534;2022-08-01T08:56:48;34.00;51.10
33414;DHT22;60055;41.884;12.534;2022-08-01T08:59:14;34.20;51.00
33414;DHT22;60055;41.884;12.534;2022-08-01T09:01:40;33.70;51.70
33414;DHT22;60055;41.884;12.534;2022-08-01T09:04:06;33.70;50.90
33414;DHT22;60055;41.884;12.534;2022-08-01T09:06:33;33.60;51.30
33414;DHT22;60055;41.884;12.534;2022-08-01T09:08:59;33.80;50.70
33414;DHT22;60055;41.884;12.534;2022-08-01T09:11:25;34.00;50.60
33414;DHT22;60055;41.884;12.534;2022-08-01T09:14:14;34.10;49.50
33414;DHT22;60055;41.884;12.534;2022-08-01T09:16:44;34.10;49.60
33414;DHT22;60055;41.884;12.534;2022-08-01T09:19:18;34.10;49.20
33414;DHT22;60055;41.884;12.534;2022-08-01T09:22:01;34.30;49.30
33414;DHT22;60055;41.884;12.534;2022-08-01T09:24:29;34.30;48.30
33414;DHT22;60055;41.884;12.534;2022-08-01T09:26:56;34.10;49.40
33414;DHT22;60055;41.884;12.534;2022-08-01T09:29:29;33.90;49.20
33414;DHT22;60055;41.884;12.534;2022-08-01T09:31:55;34.00;49.20
33414;DHT22;60055;41.884;12.534;2022-08-01T09:34:29;34.00;48.90
33414;DHT22;60055;41.884;12.534;2022-08-01T09:37:04;33.70;49.20
33414;DHT22;60055;41.884;12.534;2022-08-01T09:39:36;33.60;49.30
33414;DHT22;60055;41.884;12.534;2022-08-01T09:42:26;33.70;49.40
33414;DHT22;60055;41.884;12.534;2022-08-01T09:44:52;33.70;48.70
33414;DHT22;60055;41.884;12.534;2022-08-01T09:47:20;33.90;48.60
33414;DHT22;60055;41.884;12.534;2022-08-01T09:49:55;33.90;48.00
33414;DHT22;60055;41.884;12.534;2022-08-01T09:52:23;34.10;48.00
33414;DHT22;60055;41.884;12.534;2022-08-01T09:55:07;34.10;47.90
33414;DHT22;60055;41.884;12.534;2022-08-01T09:57:33;34.10;48.10
33414;DHT22;60055;41.884;12.534;2022-08-01T10:00:00;34.20;48.10
33414;DHT22;60055;41.884;12.534;2022-08-01T10:02:37;34.10;47.90
33414;DHT22;60055;41.884;12.534;2022-08-01T10:05:07;34.30;47.90
33414;DHT22;60055;41.884;12.534;2022-08-01T10:07:35;34.40;47.90
33414;DHT22;60055;41.884;12.534;2022-08-01T10:10:11;34.80;47.70
33414;DHT22;60055;41.884;12.534;2022-08-01T10:12:37;34.40;46.60
33414;DHT22;60055;41.884;12.534;2022-08-01T10:15:05;34.30;46.50
33414;DHT22;60055;41.884;12.534;2022-08-01T10:17:33;34.00;46.50
33414;DHT22;60055;41.884;12.534;2022-08-01T10:20:01;34.20;46.50
33414;DHT22;60055;41.884;12.534;2022-08-01T10:22:27;34.30;45.90
33414;DHT22;60055;41.884;12.534;2022-08-01T10:24:56;34.70;45.70
33414;DHT22;60055;41.884;12.534;2022-08-01T10:27:25;34.90;46.00
33414;DHT22;60055;41.884;12.534;2022-08-01T10:29:59;34.60;45.70
33414;DHT22;60055;41.884;12.534;2022-08-01T10:32:34;34.30;45.80
33414;DHT22;60055;41.884;12.534;2022-08-01T10:35:07;34.20;45.40
33414;DHT22;60055;41.884;12.534;2022-08-01T10:37:35;34.00;45.40
33414;DHT22;60055;41.884;12.534;2022-08-01T10:40:01;34.30;46.00
33414;DHT22;60055;41.884;12.534;2022-08-01T10:42:28;34.50;46.10
33414;DHT22;60055;41.884;12.534;2022-08-01T10:44:55;34.60;45.80
33414;DHT22;60055;41.884;12.534;2022-08-01T10:47:30;34.30;45.40
33414;DHT22;60055;41.884;12.534;2022-08-01T10:50:42;34.10;45.80
33414;DHT22;60055;41.884;12.534;2022-08-01T10:53:18;34.30;46.10
33414;DHT22;60055;41.884;12.534;2022-08-01T10:58:13;34.00;47.60
33414;DHT22;60055;41.884;12.534;2022-08-01T11:00:39;34.20;47.90
33414;DHT22;60055;41.884;12.534;2022-08-01T11:03:05;34.20;47.60
33414;DHT22;60055;41.884;12.534;2022-08-01T11:05:33;34.30;48.00
33414;DHT22;60055;41.884;12.534;2022-08-01T11:08:21;34.40;48.00
33414;DHT22;60055;41.884;12.534;2022-08-01T11:10:47;34.20;48.20
33414;DHT22;60055;41.884;12.534;2022-08-01T11:13:13;34.40;48.40
33414;DHT22;60055;41.884;12.534;2022-08-01T11:15:39;34.50;48.20
33414;DHT22;60055;41.884;12.534;2022-08-01T11:20:59;34.60;48.30
33414;DHT22;60055;41.884;12.534;2022-08-01T11:23:27;34.60;47.90
33414;DHT22;60055;41.884;12.534;2022-08-01T11:28:24;34.40;48.10
33414;DHT22;60055;41.884;12.534;2022-08-01T11:30:52;34.50;48.10
33414;DHT22;60055;41.884;12.534;2022-08-01T11:38:47;34.60;47.80
33414;DHT22;60055;41.884;12.534;2022-08-01T11:41:33;34.50;48.00
33414;DHT22;60055;41.884;12.534;2022-08-01T11:44:18;34.60;47.70
33414;DHT22;60055;41.884;12.534;2022-08-01T11:51:56;34.90;47.60
33414;DHT22;60055;41.884;12.534;2022-08-01T11:54:26;34.90;47.40
33414;DHT22;60055;41.884;12.534;2022-08-01T11:56:54;35.00;47.20
33414;DHT22;60055;41.884;12.534;2022-08-01T11:59:21;35.00;47.20
33414;DHT22;60055;41.884;12.534;2022-08-01T12:01:50;34.70;47.00
33414;DHT22;60055;41.884;12.534;2022-08-01T12:04:15;34.70;47.40
33414;DHT22;60055;41.884;12.534;2022-08-01T12:06:41;34.70;47.70
33414;DHT22;60055;41.884;12.534;2022-08-01T12:09:20;35.00;47.60
33414;DHT22;60055;41.884;12.534;2022-08-01T12:11:46;34.90;47.40
33414;DHT22;60055;41.884;12.534;2022-08-01T12:14:19;34.90;47.50
33414;DHT22;60055;41.884;12.534;2022-08-01T12:16:51;34.90;47.50
33414;DHT22;60055;41.884;12.534;2022-08-01T12:19:21;34.50;47.40
33414;DHT22;60055;41.884;12.534;2022-08-01T12:22:22;34.80;47.70
33414;DHT22;60055;41.884;12.534;2022-08-01T12:24:48;34.80;47.70
33414;DHT22;60055;41.884;12.534;2022-08-01T12:27:28;34.70;48.00
33414;DHT22;60055;41.884;12.534;2022-08-01T12:29:54;34.90;47.80
33414;DHT22;60055;41.884;12.534;2022-08-01T12:32:30;34.90;47.50
33414;DHT22;60055;41.884;12.534;2022-08-01T12:35:06;34.90;47.60
33414;DHT22;60055;41.884;12.534;2022-08-01T12:37:40;34.90;47.40
33414;DHT22;60055;41.884;12.534;2022-08-01T12:40:11;35.00;47.60
33414;DHT22;60055;41.884;12.534;2022-08-01T12:42:38;35.10;48.10
33414;DHT22;60055;41.884;12.534;2022-08-01T12:45:07;35.00;48.00
33414;DHT22;60055;41.884;12.534;2022-08-01T12:47:33;35.10;48.20
33414;DHT22;60055;41.884;12.534;2022-08-01T12:50:00;35.20;48.10
33414;DHT22;60055;41.884;12.534;2022-08-01T12:52:34;35.10;48.30
33414;DHT22;60055;41.884;12.534;2022-08-01T12:55:26;35.20;48.30
33414;DHT22;60055;41.884;12.534;2022-08-01T12:58:07;35.10;48.20
33414;DHT22;60055;41.884;12.534;2022-08-01T13:00:34;35.20;48.40
33414;DHT22;60055;41.884;12.534;2022-08-01T13:03:08;35.20;48.40
33414;DHT22;60055;41.884;12.534;2022-08-01T13:08:13;35.20;48.20
33414;DHT22;60055;41.884;12.534;2022-08-01T13:10:39;35.10;48.50
33414;DHT22;60055;41.884;12.534;2022-08-01T13:13:07;35.30;48.50
33414;DHT22;60055;41.884;12.534;2022-08-01T13:15:34;35.30;48.20
33414;DHT22;60055;41.884;12.534;2022-08-01T13:18:21;35.50;48.10
33414;DHT22;60055;41.884;12.534;2022-08-01T13:20:47;35.40;48.30
33414;DHT22;60055;41.884;12.534;2022-08-01T13:23:17;35.20;48.80
33414;DHT22;60055;41.884;12.534;2022-08-01T13:25:51;35.20;48.50
33414;DHT22;60055;41.884;12.534;2022-08-01T13:28:18;35.40;48.50
33414;DHT22;60055;41.884;12.534;2022-08-01T13:30:55;35.50;48.20
33414;DHT22;60055;41.884;12.534;2022-08-01T13:33:21;35.60;48.70
33414;DHT22;60055;41.884;12.534;2022-08-01T13:35:53;35.40;49.50
33414;DHT22;60055;41.884;12.534;2022-08-01T13:38:19;35.40;49.60
33414;DHT22;60055;41.884;12.534;2022-08-01T13:40:45;35.20;49.90
33414;DHT22;60055;41.884;12.534;2022-08-01T13:43:10;35.30;49.70
33414;DHT22;60055;41.884;12.534;2022-08-01T13:45:36;35.50;49.70
33414;DHT22;60055;41.884;12.534;2022-08-01T13:48:04;35.60;49.70
33414;DHT22;60055;41.884;12.534;2022-08-01T13:50:29;35.10;50.80
33414;DHT22;60055;41.884;12.534;2022-08-01T13:52:55;35.00;51.60
33414;DHT22;60055;41.884;12.534;2022-08-01T13:55:21;35.20;51.70
33414;DHT22;60055;41.884;12.534;2022-08-01T13:57:47;35.20;51.70
33414;DHT22;60055;41.884;12.534;2022-08-01T14:00:13;35.40;51.80
33414;DHT22;60055;41.884;12.534;2022-08-01T14:02:39;35.50;51.80
33414;DHT22;60055;41.884;12.534;2022-08-01T14:05:05;35.30;51.70
33414;DHT22;60055;41.884;12.534;2022-08-01T14:07:30;35.40;51.60
33414;DHT22;60055;41.884;12.534;2022-08-01T14:09:56;35.40;51.90
33414;DHT22;60055;41.884;12.534;2022-08-01T14:12:22;35.30;52.80
33414;DHT22;60055;41.884;12.534;2022-08-01T14:14:48;35.10;53.60
33414;DHT22;60055;41.884;12.534;2022-08-01T14:17:13;35.20;53.60
33414;DHT22;60055;41.884;12.534;2022-08-01T14:19:39;35.30;53.20
33414;DHT22;60055;41.884;12.534;2022-08-01T14:22:05;35.40;53.10
33414;DHT22;60055;41.884;12.534;2022-08-01T14:24:30;35.20;52.80
33414;DHT22;60055;41.884;12.534;2022-08-01T14:26:56;35.40;52.80
33414;DHT22;60055;41.884;12.534;2022-08-01T14:29:21;35.50;52.90
33414;DHT22;60055;41.884;12.534;2022-08-01T14:31:47;35.40;52.30
33414;DHT22;60055;41.884;12.534;2022-08-01T14:34:13;35.30;52.80
33414;DHT22;60055;41.884;12.534;2022-08-01T14:36:38;35.30;53.20
33414;DHT22;60055;41.884;12.534;2022-08-01T14:39:05;35.10;53.40
33414;DHT22;60055;41.884;12.534;2022-08-01T14:41:31;35.20;53.40
33414;DHT22;60055;41.884;12.534;2022-08-01T14:43:57;35.20;53.50
33414;DHT22;60055;41.884;12.534;2022-08-01T14:46:23;35.40;53.20
33414;DHT22;60055;41.884;12.534;2022-08-01T14:48:48;35.40;53.40
33414;DHT22;60055;41.884;12.534;2022-08-01T14:51:14;35.30;53.60
33414;DHT22;60055;41.884;12.534;2022-08-01T14:53:40;34.80;54.70
33414;DHT22;60055;41.884;12.534;2022-08-01T14:56:06;34.80;54.50
33414;DHT22;60055;41.884;12.534;2022-08-01T14:58:32;34.80;54.50
33414;DHT22;60055;41.884;12.534;2022-08-01T15:00:58;34.60;54.60
33414;DHT22;60055;41.884;12.534;2022-08-01T15:03:23;34.20;55.40
33414;DHT22;60055;41.884;12.534;2022-08-01T15:05:52;34.40;55.30
33414;DHT22;60055;41.884;12.534;2022-08-01T15:08:17;34.40;55.30
33414;DHT22;60055;41.884;12.534;2022-08-01T15:10:43;34.40;54.90
33414;DHT22;60055;41.884;12.534;2022-08-01T15:13:10;34.50;54.90
33414;DHT22;60055;41.884;12.534;2022-08-01T15:15:35;34.50;54.20
33414;DHT22;60055;41.884;12.534;2022-08-01T15:18:01;34.50;54.60
33414;DHT22;60055;41.884;12.534;2022-08-01T15:20:27;34.50;54.30
33414;DHT22;60055;41.884;12.534;2022-08-01T15:22:53;34.30;54.80
33414;DHT22;60055;41.884;12.534;2022-08-01T15:25:19;34.50;54.60
33414;DHT22;60055;41.884;12.534;2022-08-01T15:27:45;34.40;55.00
33414;DHT22;60055;41.884;12.534;2022-08-01T15:30:11;34.50;55.00
33414;DHT22;60055;41.884;12.534;2022-08-01T15:32:37;34.40;54.70
33414;DHT22;60055;41.884;12.534;2022-08-01T15:35:04;34.50;55.20
33414;DHT22;60055;41.884;12.534;2022-08-01T15:37:31;34.50;54.90
33414;DHT22;60055;41.884;12.534;2022-08-01T15:39:57;34.40;55.10
33414;DHT22;60055;41.884;12.534;2022-08-01T15:42:23;34.20;55.30
33414;DHT22;60055;41.884;12.534;2022-08-01T15:44:50;34.30;55.90
33414;DHT22;60055;41.884;12.534;2022-08-01T15:47:15;34.20;56.20
33414;DHT22;60055;41.884;12.534;2022-08-01T15:49:41;33.70;56.80
33414;DHT22;60055;41.884;12.534;2022-08-01T15:52:07;33.80;56.60
33414;DHT22;60055;41.884;12.534;2022-08-01T15:54:34;33.80;55.80
33414;DHT22;60055;41.884;12.534;2022-08-01T15:56:59;33.60;56.60
33414;DHT22;60055;41.884;12.534;2022-08-01T15:59:25;33.60;56.50
33414;DHT22;60055;41.884;12.534;2022-08-01T16:01:51;33.40;57.50
33414;DHT22;60055;41.884;12.534;2022-08-01T16:04:17;33.70;57.30